Evergreen, Colorado
Current Conditions -  °F | °C
As of 6:47 AM on Wednesday 26 Nov 2014 (Local Time) from KBJC Reporting Station
Broken Clouds Broken Clouds  
Wind Chill: 20°   Ceiling: 1900
Heat Index: 27°   Visibility: 10mi
Dew Point: 25°   Wind: 6mph
Humidity: 93%   Direction: 160°SSE
Pressure: 30.2"   Gusts: NA
Location:  39.63°N, 105.31°W
Report Text: KBJC 261347Z 16005KT 10SM BKN019 BKN180 M03/M04 A3020
Loading
Personal Weather Stations






























Interactive Weather Map New forecast layout! Learn more

10-Day Weather Forecast

Advertisements
Track Severe Weather on mobile